Time;durP1;ratioP1;P1;durP2;ratioP2;P2;SDS_P1;SDS_P2;PMS_P1;PMS_P2;Temp;Humidity;BMP_temperature;BMP_pressure;BME280_temperature;BME280_humidity;BME280_pressure;Samples;Min_cycle;Max_cycle;Signal;HPM_P1;HPM_P2
2022/07/25 00:00:43;;;;;;;15.60;7.72;;;23.30;99.90;;;;;;5035628;28;20029;-74
2022/07/25 00:03:09;;;;;;;12.30;7.13;;;23.20;99.90;;;;;;5034339;28;20068;-74
2022/07/25 00:05:34;;;;;;;11.00;6.85;;;23.20;99.90;;;;;;5032946;28;20476;-73
2022/07/25 00:08:00;;;;;;;12.32;7.03;;;23.20;99.90;;;;;;5032321;28;20037;-75
2022/07/25 00:10:26;;;;;;;11.35;6.53;;;23.10;99.90;;;;;;5035557;28;20017;-74
2022/07/25 00:12:55;;;;;;;13.60;6.40;;;23.00;99.90;;;;;;5032346;28;20033;-73
2022/07/25 00:15:21;;;;;;;14.25;7.90;;;;;;;;;;5032039;28;20040;-72
2022/07/25 00:17:47;;;;;;;13.90;7.20;;;22.90;99.90;;;;;;5033100;28;20022;-74
2022/07/25 00:20:13;;;;;;;13.95;7.10;;;22.90;99.90;;;;;;5032109;28;20465;-75
2022/07/25 00:22:39;;;;;;;13.88;7.78;;;22.80;99.90;;;;;;5033364;28;20527;-72
2022/07/25 00:25:05;;;;;;;13.95;8.77;;;22.90;99.90;;;;;;5032425;28;20024;-75
2022/07/25 00:27:33;;;;;;;12.40;8.23;;;22.70;99.90;;;;;;5034994;28;20064;-70
2022/07/25 00:29:59;;;;;;;14.10;7.85;;;22.60;99.90;;;;;;5031738;28;20028;-68
2022/07/25 00:32:25;;;;;;;13.55;7.97;;;22.70;99.90;;;;;;5032290;28;20033;-73
2022/07/25 00:34:51;;;;;;;16.60;8.55;;;22.70;99.90;;;;;;5031713;28;20043;-73
2022/07/25 00:37:16;;;;;;;14.40;7.53;;;22.60;99.90;;;;;;5031795;28;20030;-64
2022/07/25 00:39:42;;;;;;;15.43;8.65;;;22.60;99.90;;;;;;5031761;28;20490;-62
2022/07/25 00:42:08;;;;;;;15.48;7.93;;;;;;;;;;5031946;28;20145;-64
2022/07/25 00:44:34;;;;;;;21.33;10.02;;;22.50;99.90;;;;;;5031628;28;20025;-75
2022/07/25 00:47:01;;;;;;;18.25;9.07;;;;;;;;;;5031667;28;20033;-74
2022/07/25 00:49:27;;;;;;;16.27;9.20;;;22.40;99.90;;;;;;5031650;28;20041;-68
2022/07/25 00:51:54;;;;;;;19.77;10.60;;;22.40;99.90;;;;;;5031987;28;20029;-75
2022/07/25 00:54:20;;;;;;;16.85;10.30;;;22.40;99.90;;;;;;5042079;28;20080;-66
2022/07/25 00:56:47;;;;;;;17.35;9.15;;;22.30;99.90;;;;;;5051841;28;20036;-72
2022/07/25 00:59:13;;;;;;;15.55;9.90;;;22.30;99.90;;;;;;5050581;28;20426;-71
2022/07/25 01:01:41;;;;;;;15.13;9.45;;;22.20;99.90;;;;;;5048267;28;20044;-74
2022/07/25 01:04:07;;;;;;;20.55;9.38;;;22.20;99.90;;;;;;5045369;28;20120;-73
2022/07/25 01:06:35;;;;;;;20.05;10.07;;;22.20;99.90;;;;;;5033486;28;20021;-67
2022/07/25 01:09:08;;;;;;;16.50;8.45;;;22.30;99.90;;;;;;5042281;28;20052;-72
2022/07/25 01:11:34;;;;;;;18.33;9.05;;;22.30;99.90;;;;;;5047638;28;20542;-72
2022/07/25 01:14:00;;;;;;;15.68;8.60;;;22.20;99.90;;;;;;5048893;28;20123;-67
2022/07/25 01:16:26;;;;;;;16.67;8.63;;;22.20;99.90;;;;;;5049737;28;20098;-66
2022/07/25 01:18:52;;;;;;;14.15;9.10;;;22.20;99.90;;;;;;5044960;28;20352;-70
2022/07/25 01:21:17;;;;;;;20.60;9.65;;;22.10;99.90;;;;;;5050751;28;20034;-74
2022/07/25 01:23:43;;;;;;;14.65;8.55;;;22.10;99.90;;;;;;5043978;28;20021;-67
2022/07/25 01:26:09;;;;;;;13.10;7.80;;;22.20;99.90;;;;;;5044795;28;20487;-61
2022/07/25 01:28:35;;;;;;;14.45;8.25;;;22.20;99.90;;;;;;5042898;28;20468;-68
2022/07/25 01:31:01;;;;;;;12.73;8.02;;;22.20;99.90;;;;;;5039042;28;20041;-64
2022/07/25 01:33:26;;;;;;;14.98;8.95;;;22.20;99.90;;;;;;5031106;28;20033;-67
2022/07/25 01:35:52;;;;;;;13.95;8.30;;;22.20;99.90;;;;;;5031454;28;20030;-72
2022/07/25 01:38:18;;;;;;;16.50;9.18;;;22.00;99.90;;;;;;5030952;28;20049;-74
2022/07/25 01:40:44;;;;;;;14.63;9.27;;;21.90;99.90;;;;;;5031060;28;20025;-74
2022/07/25 01:43:10;;;;;;;16.88;8.60;;;21.90;99.90;;;;;;5031052;28;20024;-72
2022/07/25 01:45:37;;;;;;;15.32;7.65;;;21.80;99.90;;;;;;5030894;28;20041;-72
2022/07/25 01:48:02;;;;;;;15.18;9.55;;;21.80;99.90;;;;;;5030962;28;20026;-71
2022/07/25 01:50:29;;;;;;;14.48;8.45;;;21.70;99.90;;;;;;5031096;28;20056;-74
2022/07/25 01:52:54;;;;;;;20.40;9.23;;;21.80;99.90;;;;;;5031056;28;20029;-75
2022/07/25 01:55:20;;;;;;;14.95;8.63;;;21.70;99.90;;;;;;5033923;28;20040;-70
2022/07/25 01:57:46;;;;;;;15.60;8.55;;;21.70;99.90;;;;;;5032515;28;20100;-71
2022/07/25 02:00:14;;;;;;;16.25;8.40;;;21.60;99.90;;;;;;5032176;28;20048;-73
2022/07/25 02:02:41;;;;;;;15.25;9.13;;;21.50;99.90;;;;;;5032273;28;20527;-74
2022/07/25 02:05:08;;;;;;;17.13;8.60;;;;;;;;;;5035757;28;20032;-71
2022/07/25 02:07:34;;;;;;;15.30;8.55;;;21.50;99.90;;;;;;5034600;28;20522;-74
2022/07/25 02:10:00;;;;;;;17.73;9.48;;;21.60;99.90;;;;;;5033100;28;20108;-74
2022/07/25 02:12:26;;;;;;;16.27;8.18;;;21.50;99.90;;;;;;5031188;28;20026;-72
2022/07/25 02:14:52;;;;;;;16.00;8.90;;;21.60;99.90;;;;;;5030638;28;20503;-69
2022/07/25 02:17:18;;;;;;;15.02;8.65;;;21.50;99.90;;;;;;5030732;28;20430;-68
2022/07/25 02:19:44;;;;;;;17.20;8.20;;;21.40;99.90;;;;;;5030748;28;20040;-72
2022/07/25 02:22:10;;;;;;;16.17;8.73;;;21.40;99.90;;;;;;5034388;28;20013;-73
2022/07/25 02:24:36;;;;;;;19.23;9.68;;;21.30;99.90;;;;;;5030888;28;20021;-74
2022/07/25 02:27:03;;;;;;;15.50;9.75;;;21.20;99.90;;;;;;5030822;28;20021;-67
2022/07/25 02:29:29;;;;;;;17.55;9.63;;;21.20;99.90;;;;;;5030690;28;20392;-71
2022/07/25 02:31:54;;;;;;;21.45;9.02;;;21.10;99.90;;;;;;5030196;28;20018;-70
2022/07/25 02:34:20;;;;;;;12.00;8.60;;;21.10;99.90;;;;;;5030505;28;20042;-70
2022/07/25 02:36:46;;;;;;;13.32;7.95;;;21.20;99.90;;;;;;5034733;28;20464;-74
2022/07/25 02:39:12;;;;;;;16.33;9.00;;;21.20;99.90;;;;;;5030424;28;20053;-73
2022/07/25 02:41:38;;;;;;;15.55;8.43;;;21.20;99.90;;;;;;5030491;28;20447;-74
2022/07/25 02:44:05;;;;;;;16.02;9.38;;;21.20;99.90;;;;;;5032242;28;20076;-72
2022/07/25 02:46:31;;;;;;;15.00;9.38;;;21.20;99.90;;;;;;5034020;28;20027;-74
2022/07/25 02:48:57;;;;;;;17.08;9.55;;;21.20;99.90;;;;;;5033883;28;20026;-70
2022/07/25 02:51:24;;;;;;;17.10;9.90;;;21.20;99.90;;;;;;5034313;28;20025;-65
2022/07/25 02:53:50;;;;;;;19.05;9.77;;;21.10;99.90;;;;;;5033874;28;20021;-74
2022/07/25 02:56:16;;;;;;;20.55;10.88;;;21.10;99.90;;;;;;5033756;28;20040;-74
2022/07/25 02:58:41;;;;;;;18.70;11.05;;;21.10;99.90;;;;;;5033765;28;20025;-74
2022/07/25 03:01:07;;;;;;;19.63;10.57;;;21.10;99.90;;;;;;5033561;28;20049;-74
2022/07/25 03:03:33;;;;;;;16.85;10.82;;;21.20;99.90;;;;;;5033524;28;20175;-72
2022/07/25 03:05:59;;;;;;;20.00;11.57;;;21.10;99.90;;;;;;5033548;28;20037;-74
2022/07/25 03:08:25;;;;;;;21.23;10.88;;;21.10;99.90;;;;;;5033624;28;20018;-72
2022/07/25 03:10:52;;;;;;;23.73;11.38;;;21.10;99.90;;;;;;5035504;28;20033;-72
2022/07/25 03:13:17;;;;;;;20.05;10.93;;;21.10;99.90;;;;;;5033706;28;20029;-74
2022/07/25 03:15:43;;;;;;;18.70;11.32;;;21.10;99.90;;;;;;5032963;28;20819;-70
2022/07/25 03:18:09;;;;;;;22.42;12.60;;;21.10;99.90;;;;;;5033444;28;20017;-68
2022/07/25 03:20:35;;;;;;;19.38;12.40;;;21.10;99.90;;;;;;5054137;28;20036;-74
2022/07/25 03:23:01;;;;;;;19.95;12.48;;;21.00;99.90;;;;;;5054161;28;20109;-74
2022/07/25 03:25:26;;;;;;;19.92;10.55;;;20.90;99.90;;;;;;5054648;28;20375;-73
2022/07/25 03:27:52;;;;;;;18.17;11.30;;;20.90;99.90;;;;;;5054347;28;20041;-74
2022/07/25 03:30:18;;;;;;;19.85;12.15;;;20.90;99.90;;;;;;5053932;28;20171;-74
2022/07/25 03:32:44;;;;;;;15.40;10.48;;;20.70;99.90;;;;;;5054422;28;20060;-74
2022/07/25 03:35:10;;;;;;;17.67;10.55;;;20.70;99.90;;;;;;5053766;28;20384;-74
2022/07/25 03:37:36;;;;;;;20.33;11.70;;;20.60;99.90;;;;;;5052404;28;20036;-73
2022/07/25 03:40:02;;;;;;;17.70;11.00;;;20.60;99.90;;;;;;5053330;28;20032;-74
2022/07/25 03:42:28;;;;;;;17.65;11.02;;;20.60;99.90;;;;;;5054341;28;20025;-74
2022/07/25 03:44:53;;;;;;;18.75;12.35;;;20.90;99.90;;;;;;5054418;28;20364;-73
2022/07/25 03:47:19;;;;;;;18.08;11.25;;;21.50;99.90;;;;;;5053441;28;20029;-74
2022/07/25 03:49:45;;;;;;;17.83;10.82;;;22.00;99.90;;;;;;5054198;28;20464;-74
2022/07/25 03:52:11;;;;;;;19.60;10.50;;;22.60;99.90;;;;;;5053610;28;20052;-75
2022/07/25 03:54:36;;;;;;;19.98;10.73;;;22.90;99.90;;;;;;5053851;28;20116;-74
2022/07/25 03:57:04;;;;;;;16.42;10.18;;;;;;;;;;5053413;28;20495;-74
2022/07/25 03:59:30;;;;;;;17.40;10.40;;;23.90;99.90;;;;;;5053753;28;20020;-74
2022/07/25 04:01:57;;;;;;;16.02;10.73;;;;;;;;;;5053102;28;20089;-71
2022/07/25 04:04:23;;;;;;;14.95;9.23;;;;;;;;;;5053804;28;20033;-75
2022/07/25 04:06:49;;;;;;;15.32;9.32;;;;;;;;;;5052832;28;20102;-75
2022/07/25 04:09:15;;;;;;;15.43;9.73;;;25.50;97.20;;;;;;5053273;28;20082;-75
2022/07/25 04:11:42;;;;;;;22.20;10.30;;;25.60;97.30;;;;;;5053124;28;20064;-74
2022/07/25 04:14:07;;;;;;;17.70;10.52;;;25.60;95.60;;;;;;5052326;28;20077;-75
2022/07/25 04:16:35;;;;;;;19.05;10.20;;;26.40;92.50;;;;;;5053227;28;20052;-75
2022/07/25 04:19:01;;;;;;;15.45;9.25;;;;;;;;;;5052757;28;20373;-75
2022/07/25 04:21:27;;;;;;;13.25;8.85;;;26.60;91.10;;;;;;5053031;28;20029;-75
2022/07/25 04:23:53;;;;;;;14.57;9.43;;;26.80;99.90;;;;;;5052883;28;20021;-76
2022/07/25 04:26:19;;;;;;;16.50;8.90;;;26.80;91.10;;;;;;5053511;28;20115;-75
2022/07/25 04:28:45;;;;;;;16.23;9.40;;;26.70;90.90;;;;;;5052140;28;20471;-75
2022/07/25 04:31:11;;;;;;;19.58;9.05;;;27.30;90.10;;;;;;5034197;28;20037;-75
2022/07/25 04:33:40;;;;;;;14.93;9.20;;;27.70;99.90;;;;;;5052841;28;20083;-76
2022/07/25 04:36:07;;;;;;;16.75;9.63;;;;;;;;;;5052706;28;20036;-75
2022/07/25 04:38:33;;;;;;;24.08;9.10;;;;;;;;;;5052151;28;20468;-76
2022/07/25 04:40:59;;;;;;;16.80;8.93;;;28.40;92.40;;;;;;5052113;28;20025;-75
2022/07/25 04:43:25;;;;;;;14.45;9.15;;;28.20;94.00;;;;;;5051925;28;20056;-75
2022/07/25 04:45:51;;;;;;;16.00;9.50;;;28.40;83.20;;;;;;5052227;28;20020;-75
2022/07/25 04:48:18;;;;;;;16.65;9.25;;;;;;;;;;5052891;28;20530;-74
2022/07/25 04:50:44;;;;;;;14.68;8.55;;;28.50;80.90;;;;;;5052450;28;20017;-75
2022/07/25 04:53:10;;;;;;;15.85;10.48;;;28.80;82.20;;;;;;5052641;28;20048;-76
2022/07/25 04:55:37;;;;;;;16.60;9.50;;;29.20;81.40;;;;;;5052086;28;20470;-75
2022/07/25 04:58:03;;;;;;;17.63;10.38;;;29.10;84.70;;;;;;5052238;28;20025;-75
2022/07/25 05:00:30;;;;;;;16.83;9.50;;;29.60;79.00;;;;;;5051879;28;20098;-74
2022/07/25 05:02:56;;;;;;;18.75;9.88;;;29.90;78.80;;;;;;5051897;28;20128;-75
2022/07/25 05:05:22;;;;;;;20.00;11.23;;;29.20;79.00;;;;;;5051990;28;20107;-75
2022/07/25 05:07:48;;;;;;;15.63;9.13;;;27.50;82.30;;;;;;5053248;28;20100;-75
2022/07/25 05:10:17;;;;;;;22.23;10.82;;;;;;;;;;5052260;28;20145;-76
2022/07/25 05:12:43;;;;;;;17.48;10.30;;;26.50;87.40;;;;;;5052793;28;20128;-75
2022/07/25 05:15:09;;;;;;;20.30;10.25;;;26.50;90.50;;;;;;5050650;28;20562;-75
2022/07/25 05:17:35;;;;;;;17.67;10.88;;;25.90;92.00;;;;;;5051700;28;20021;-74
2022/07/25 05:20:01;;;;;;;22.60;10.43;;;25.80;92.60;;;;;;5047618;28;20033;-74
2022/07/25 05:22:27;;;;;;;15.73;9.77;;;25.80;94.00;;;;;;5036286;28;20071;-75
2022/07/25 05:24:53;;;;;;;17.17;10.85;;;26.00;94.70;;;;;;5034310;28;20037;-67
2022/07/25 05:27:18;;;;;;;19.63;10.85;;;25.80;95.20;;;;;;5051184;28;20031;-69
2022/07/25 05:29:44;;;;;;;20.30;11.45;;;26.00;95.70;;;;;;5046254;28;20472;-72
2022/07/25 05:32:10;;;;;;;20.13;10.90;;;26.10;95.50;;;;;;5038452;28;20464;-68
2022/07/25 05:34:36;;;;;;;26.38;11.30;;;25.80;95.50;;;;;;5037508;28;20108;-73
2022/07/25 05:37:01;;;;;;;19.30;10.10;;;25.90;95.70;;;;;;5034704;28;20583;-65
2022/07/25 05:39:27;;;;;;;21.70;10.48;;;26.00;96.00;;;;;;5035592;28;20029;-69
2022/07/25 05:41:53;;;;;;;26.50;11.88;;;26.10;94.60;;;;;;5034449;28;20053;-73
2022/07/25 05:44:19;;;;;;;20.80;11.27;;;25.90;95.10;;;;;;5047076;28;20029;-74
2022/07/25 05:46:45;;;;;;;19.92;11.07;;;26.30;95.50;;;;;;5052175;28;20017;-71
2022/07/25 05:49:11;;;;;;;33.22;11.43;;;26.50;94.70;;;;;;5051310;28;20472;-75
2022/07/25 05:51:37;;;;;;;15.30;8.18;;;26.60;95.30;;;;;;5051693;28;20029;-74
2022/07/25 05:54:03;;;;;;;22.55;9.15;;;26.50;92.30;;;;;;5051052;28;20029;-74
2022/07/25 05:56:29;;;;;;;17.45;9.50;;;26.50;92.10;;;;;;5051028;28;20045;-75
2022/07/25 05:58:55;;;;;;;23.15;9.02;;;26.50;91.80;;;;;;5051787;28;20021;-74
2022/07/25 06:01:21;;;;;;;19.33;8.90;;;26.60;90.10;;;;;;5042789;28;20475;-75
2022/07/25 06:03:47;;;;;;;23.42;8.93;;;26.70;90.60;;;;;;5050825;28;20059;-76
2022/07/25 06:06:13;;;;;;;14.35;8.07;;;26.90;89.30;;;;;;5051774;28;20025;-75
2022/07/25 06:08:39;;;;;;;18.85;8.60;;;26.70;88.30;;;;;;5051528;28;20467;-75
2022/07/25 06:11:06;;;;;;;16.90;7.75;;;26.90;87.20;;;;;;5051642;28;20029;-75
2022/07/25 06:13:33;;;;;;;13.60;7.68;;;26.80;87.80;;;;;;5051591;28;20028;-74
2022/07/25 06:15:59;;;;;;;16.83;7.47;;;26.80;86.20;;;;;;5050919;28;20059;-75
2022/07/25 06:18:26;;;;;;;13.05;7.75;;;26.90;85.70;;;;;;5052488;28;20118;-74
2022/07/25 06:20:52;;;;;;;13.75;7.63;;;27.00;84.40;;;;;;5055232;28;20884;-73
2022/07/25 06:23:18;;;;;;;18.08;7.72;;;27.10;84.30;;;;;;5055629;28;20079;-75
2022/07/25 06:25:45;;;;;;;15.38;7.75;;;27.20;83.00;;;;;;5055103;28;20071;-75
2022/07/25 06:28:13;;;;;;;13.13;8.00;;;;;;;;;;5054951;28;20111;-74
2022/07/25 06:30:42;;;;;;;14.02;7.75;;;27.80;97.10;;;;;;5049021;28;20021;-76
2022/07/25 06:33:08;;;;;;;12.48;7.10;;;27.60;80.40;;;;;;5053737;28;20028;-75
2022/07/25 06:35:34;;;;;;;11.75;6.70;;;;;;;;;;5054863;28;20391;-74
2022/07/25 06:38:02;;;;;;;12.82;7.13;;;27.70;98.20;;;;;;5054720;28;20050;-73
2022/07/25 06:40:28;;;;;;;15.27;8.13;;;27.80;97.50;;;;;;5054573;28;20032;-76
2022/07/25 06:42:54;;;;;;;10.85;6.55;;;27.90;97.00;;;;;;5054029;28;20029;-76
2022/07/25 06:45:20;;;;;;;18.85;7.97;;;;;;;;;;5055064;28;20027;-73
2022/07/25 06:47:46;;;;;;;10.23;6.05;;;28.10;76.00;;;;;;5055121;28;20043;-68
2022/07/25 06:50:14;;;;;;;11.98;7.18;;;28.00;75.00;;;;;;5055470;28;20336;-75
2022/07/25 06:52:43;;;;;;;14.38;6.22;;;;;;;;;;5054667;28;20021;-76
2022/07/25 06:55:09;;;;;;;12.13;7.13;;;28.80;81.30;;;;;;5054782;28;20029;-75
2022/07/25 06:57:36;;;;;;;12.02;6.47;;;29.00;84.50;;;;;;5055230;28;20028;-76
2022/07/25 07:00:08;;;;;;;12.73;7.43;;;29.10;81.30;;;;;;5054099;28;20080;-76
2022/07/25 07:02:45;;;;;;;13.10;6.80;;;29.10;72.80;;;;;;5048499;28;20053;-77
2022/07/25 07:05:11;;;;;;;12.13;6.28;;;28.90;70.50;;;;;;5054621;28;20028;-77
2022/07/25 07:07:37;;;;;;;10.93;6.50;;;29.00;71.60;;;;;;5053208;28;20107;-77
2022/07/25 07:10:03;;;;;;;11.43;6.18;;;29.00;69.90;;;;;;5051705;28;20029;-73
2022/07/25 07:12:29;;;;;;;10.23;5.95;;;29.30;70.10;;;;;;5052629;28;20021;-75
2022/07/25 07:14:55;;;;;;;10.02;6.15;;;29.40;68.10;;;;;;5053272;28;20383;-76
2022/07/25 07:17:21;;;;;;;9.43;5.82;;;;;;;;;;5053914;28;20109;-77
2022/07/25 07:19:47;;;;;;;12.18;6.32;;;;;;;;;;5053643;28;20040;-71
2022/07/25 07:22:13;;;;;;;12.50;6.22;;;;;;;;;;5052736;28;20032;-73
2022/07/25 07:24:39;;;;;;;9.00;5.18;;;;;;;;;;5052878;28;20028;-67
2022/07/25 07:27:05;;;;;;;11.25;5.88;;;30.50;74.90;;;;;;5052848;28;20826;-66
2022/07/25 07:29:31;;;;;;;13.15;5.88;;;;;;;;;;5049933;28;20104;-65
2022/07/25 07:31:57;;;;;;;10.82;4.95;;;;;;;;;;5050352;28;20395;-70
2022/07/25 07:34:26;;;;;;;12.50;6.30;;;;;;;;;;5053020;28;20500;-75
2022/07/25 07:36:52;;;;;;;14.10;5.32;;;;;;;;;;5053699;28;20018;-62
2022/07/25 07:39:18;;;;;;;7.43;5.35;;;31.20;74.40;;;;;;5053627;28;20028;-74
2022/07/25 07:41:44;;;;;;;11.65;5.50;;;31.50;80.70;;;;;;5054053;28;20348;-78
2022/07/25 07:44:10;;;;;;;8.25;4.90;;;31.60;85.40;;;;;;5053736;28;20025;-77
2022/07/25 07:46:37;;;;;;;10.57;5.75;;;;;;;;;;5053960;28;20029;-75
2022/07/25 07:49:03;;;;;;;17.58;5.43;;;;;;;;;;5054130;28;20036;-76
2022/07/25 07:51:30;;;;;;;9.73;4.78;;;;;;;;;;5052033;28;20025;-74
2022/07/25 07:56:41;;;;;;;7.80;4.50;;;;;;;;;;5053797;28;20017;-77
2022/07/25 07:59:07;;;;;;;7.63;4.10;;;31.70;60.00;;;;;;5053421;28;20025;-75
2022/07/25 08:01:33;;;;;;;9.30;4.32;;;31.70;59.40;;;;;;5052044;28;20044;-74
2022/07/25 08:03:59;;;;;;;7.20;4.18;;;31.90;59.30;;;;;;5048982;28;20033;-73
2022/07/25 08:06:26;;;;;;;7.40;4.05;;;31.80;58.00;;;;;;5050548;28;20025;-73
2022/07/25 08:08:52;;;;;;;6.25;4.10;;;32.10;58.00;;;;;;5052048;28;20021;-78
2022/07/25 08:11:18;;;;;;;7.65;4.40;;;;;;;;;;5031737;28;20020;-71
2022/07/25 08:13:44;;;;;;;9.77;4.97;;;32.50;58.60;;;;;;5036597;28;20021;-77
2022/07/25 08:16:12;;;;;;;9.25;4.45;;;32.50;58.90;;;;;;5036501;28;20047;-78
2022/07/25 08:18:38;;;;;;;10.63;4.47;;;32.60;56.90;;;;;;5032756;28;20017;-76
2022/07/25 08:21:05;;;;;;;8.13;4.30;;;32.70;57.20;;;;;;5017234;28;20029;-70
2022/07/25 08:23:37;;;;;;;8.50;3.63;;;32.60;55.50;;;;;;5038896;28;20048;-77
2022/07/25 08:26:04;;;;;;;6.00;4.07;;;33.10;54.30;;;;;;5040379;28;20044;-77
2022/07/25 08:28:30;;;;;;;4.85;3.15;;;33.10;54.60;;;;;;5032689;28;20035;-79
2022/07/25 08:30:57;;;;;;;16.23;4.57;;;33.40;52.60;;;;;;5032226;28;20032;-78
2022/07/25 08:33:24;;;;;;;8.68;4.22;;;33.70;62.80;;;;;;5041053;28;20044;-77
2022/07/25 08:35:53;;;;;;;4.38;3.15;;;33.20;62.70;;;;;;5040451;28;20063;-68
2022/07/25 08:38:20;;;;;;;9.52;3.53;;;;;;;;;;5037918;28;20029;-76
2022/07/25 08:40:46;;;;;;;5.80;4.07;;;33.70;51.80;;;;;;5050976;28;20136;-78
2022/07/25 08:43:14;;;;;;;8.02;3.53;;;33.60;52.00;;;;;;5046138;28;20075;-77
2022/07/25 08:45:44;;;;;;;5.75;3.70;;;33.30;52.10;;;;;;5038434;28;20425;-76
2022/07/25 08:48:11;;;;;;;6.03;4.35;;;32.90;51.80;;;;;;5037555;28;20086;-75
2022/07/25 08:50:37;;;;;;;6.15;4.72;;;33.00;51.60;;;;;;5040256;28;20036;-70
2022/07/25 08:53:03;;;;;;;7.35;3.78;;;33.30;52.10;;;;;;5035612;28;20036;-65
2022/07/25 08:55:29;;;;;;;7.47;3.70;;;33.40;52.40;;;;;;5032977;28;20045;-71
2022/07/25 08:57:55;;;;;;;7.97;3.40;;;33.30;50.60;;;;;;5032910;28;20514;-66
2022/07/25 09:00:25;;;;;;;5.88;3.55;;;33.10;51.30;;;;;;5033449;28;20086;-75
2022/07/25 09:02:52;;;;;;;7.07;3.42;;;33.10;50.10;;;;;;5031316;28;20050;-77
2022/07/25 09:05:19;;;;;;;4.80;3.67;;;33.00;50.70;;;;;;5032264;28;20685;-73
2022/07/25 09:07:45;;;;;;;3.78;2.88;;;32.90;50.90;;;;;;5046705;28;20104;-77
2022/07/25 09:10:16;;;;;;;7.40;3.22;;;33.00;50.00;;;;;;5053324;28;20416;-77
2022/07/25 09:12:51;;;;;;;6.82;3.00;;;32.50;49.40;;;;;;5052232;28;20476;-73
2022/07/25 09:15:26;;;;;;;5.22;3.30;;;32.70;50.70;;;;;;5052501;28;20044;-79
2022/07/25 09:17:53;;;;;;;4.10;2.72;;;32.80;52.30;;;;;;5047795;28;20029;-78
2022/07/25 09:20:20;;;;;;;8.30;5.85;;;33.20;51.30;;;;;;5046816;28;20035;-74
2022/07/25 09:22:46;;;;;;;5.95;3.33;;;33.50;51.60;;;;;;5045694;28;20021;-77
2022/07/25 09:25:24;;;;;;;4.72;3.08;;;33.90;51.10;;;;;;5047897;28;20441;-80
2022/07/25 09:27:50;;;;;;;5.28;3.42;;;33.90;50.00;;;;;;5034252;28;20484;-76
2022/07/25 09:30:16;;;;;;;5.90;3.38;;;33.60;48.30;;;;;;5051612;28;20120;-77
2022/07/25 09:32:42;;;;;;;4.82;2.80;;;33.60;49.90;;;;;;5055162;28;20029;-78
2022/07/25 09:35:09;;;;;;;6.05;3.03;;;33.60;49.10;;;;;;5052605;28;20040;-71
2022/07/25 09:37:35;;;;;;;9.65;5.18;;;33.40;49.50;;;;;;5053990;28;20029;-77
2022/07/25 09:40:01;;;;;;;4.43;3.15;;;33.00;49.40;;;;;;5044387;28;20025;-76
2022/07/25 09:42:31;;;;;;;7.47;3.40;;;33.30;49.40;;;;;;5047485;28;20033;-74
2022/07/25 09:45:00;;;;;;;5.53;3.33;;;33.60;49.40;;;;;;5051036;28;20064;-78
2022/07/25 09:47:26;;;;;;;4.75;3.28;;;33.70;48.40;;;;;;5052501;28;20035;-77
2022/07/25 09:49:52;;;;;;;6.22;3.13;;;33.30;47.50;;;;;;5051094;28;20127;-70
2022/07/25 09:52:18;;;;;;;3.67;2.85;;;33.40;49.00;;;;;;5048876;28;20052;-78
2022/07/25 09:54:44;;;;;;;4.63;2.92;;;;;;;;;;5046533;28;20045;-78
2022/07/25 09:57:10;;;;;;;4.13;2.75;;;33.20;47.60;;;;;;5055008;28;20013;-74
2022/07/25 09:59:36;;;;;;;4.07;3.17;;;33.60;48.20;;;;;;5055320;28;20044;-76
2022/07/25 10:02:22;;;;;;;4.80;3.08;;;33.90;49.20;;;;;;5054809;28;20060;-78
2022/07/25 10:05:13;;;;;;;9.02;4.80;;;34.20;48.10;;;;;;5055212;28;20112;-78
2022/07/25 10:07:44;;;;;;;6.18;3.10;;;33.90;48.60;;;;;;5055383;28;20387;-79
2022/07/25 10:10:24;;;;;;;4.60;3.08;;;33.60;46.90;;;;;;5055240;28;20036;-78
2022/07/25 10:13:05;;;;;;;5.55;3.08;;;33.50;47.60;;;;;;5055128;28;20025;-78
2022/07/25 10:15:47;;;;;;;4.93;3.20;;;33.40;46.90;;;;;;5045468;28;20049;-79
2022/07/25 10:18:17;;;;;;;3.50;2.55;;;33.30;47.90;;;;;;5049871;28;20028;-80
2022/07/25 10:20:44;;;;;;;6.90;2.83;;;33.10;47.50;;;;;;5049631;28;20033;-79
2022/07/25 10:23:22;;;;;;;5.45;3.03;;;33.40;48.90;;;;;;5055099;28;20029;-79
2022/07/25 10:26:07;;;;;;;7.60;3.85;;;33.30;47.70;;;;;;5047366;28;20025;-79
2022/07/25 10:28:48;;;;;;;4.15;3.00;;;33.30;47.10;;;;;;5051295;28;20405;-78
2022/07/25 10:31:14;;;;;;;5.63;3.20;;;33.00;46.70;;;;;;5054574;28;20445;-78
2022/07/25 10:33:41;;;;;;;4.93;3.47;;;33.00;46.90;;;;;;5054319;28;20471;-78
2022/07/25 10:36:09;;;;;;;5.28;2.83;;;33.00;46.90;;;;;;5049907;28;20045;-68
2022/07/25 10:38:41;;;;;;;3.55;2.85;;;33.10;46.70;;;;;;5050050;28;20538;-74
2022/07/25 10:41:10;;;;;;;4.60;3.20;;;33.20;46.60;;;;;;5050376;28;20386;-76
2022/07/25 10:43:37;;;;;;;7.57;3.47;;;33.50;47.30;;;;;;5048114;28;20024;-74
2022/07/25 10:46:16;;;;;;;4.43;3.33;;;33.20;47.80;;;;;;5044100;28;20359;-76
2022/07/25 10:48:42;;;;;;;6.47;3.08;;;33.10;48.60;;;;;;5050031;28;20102;-77
2022/07/25 10:51:12;;;;;;;4.80;2.92;;;33.20;46.90;;;;;;5053728;28;20053;-76
2022/07/25 10:53:46;;;;;;;5.93;3.25;;;33.20;47.50;;;;;;5054159;28;20029;-77
2022/07/25 10:56:20;;;;;;;6.35;3.60;;;33.10;47.40;;;;;;5052088;28;20036;-77
2022/07/25 10:58:57;;;;;;;4.30;3.13;;;33.30;48.40;;;;;;5036851;28;20091;-77
2022/07/25 11:01:31;;;;;;;4.85;3.67;;;33.40;48.80;;;;;;5035558;28;20368;-76
2022/07/25 11:04:11;;;;;;;6.55;3.50;;;33.60;47.80;;;;;;5050566;28;20098;-76
2022/07/25 11:06:41;;;;;;;7.30;3.42;;;33.40;47.50;;;;;;5054320;28;20025;-70
2022/07/25 11:09:14;;;;;;;5.20;3.22;;;33.40;46.80;;;;;;5054682;28;20423;-77
2022/07/25 11:11:46;;;;;;;6.07;3.63;;;33.30;47.20;;;;;;5054464;28;20044;-78
2022/07/25 11:14:24;;;;;;;8.98;3.88;;;33.30;47.40;;;;;;5054145;28;20021;-76
2022/07/25 11:16:52;;;;;;;7.38;3.25;;;33.40;48.40;;;;;;5054232;28;20064;-76
2022/07/25 11:19:26;;;;;;;6.10;3.67;;;33.30;47.90;;;;;;5054328;28;20542;-76
2022/07/25 11:22:00;;;;;;;5.18;3.22;;;33.30;47.80;;;;;;5053831;28;20045;-75
2022/07/25 11:24:39;;;;;;;5.35;3.28;;;33.40;48.40;;;;;;5053704;28;20032;-72
2022/07/25 11:27:06;;;;;;;4.57;3.20;;;33.30;47.50;;;;;;5054314;28;20029;-77
2022/07/25 11:29:33;;;;;;;7.63;4.40;;;33.20;48.40;;;;;;5054018;28;20528;-75
2022/07/25 11:32:02;;;;;;;4.88;3.47;;;33.60;48.60;;;;;;5053750;28;20040;-75
2022/07/25 11:34:32;;;;;;;5.10;3.38;;;33.70;47.80;;;;;;5054097;28;20069;-75
2022/07/25 11:37:00;;;;;;;5.25;3.00;;;33.80;47.20;;;;;;5053557;28;20031;-75
2022/07/25 11:39:29;;;;;;;6.97;3.80;;;33.60;46.10;;;;;;5054206;28;20025;-77
2022/07/25 11:42:02;;;;;;;9.07;3.65;;;33.40;46.90;;;;;;5053761;28;20024;-79
2022/07/25 11:44:35;;;;;;;5.03;3.28;;;33.50;48.00;;;;;;5053017;28;20025;-75
2022/07/25 11:47:06;;;;;;;5.75;3.47;;;33.50;47.00;;;;;;5054157;28;20135;-78
2022/07/25 11:49:44;;;;;;;5.40;2.88;;;33.30;46.10;;;;;;5053839;28;20406;-77
2022/07/25 11:52:21;;;;;;;4.80;3.42;;;33.30;47.10;;;;;;5053356;28;20377;-79
2022/07/25 11:54:57;;;;;;;6.95;3.78;;;33.20;47.50;;;;;;5053499;28;20033;-76
2022/07/25 11:57:29;;;;;;;4.05;3.20;;;33.40;48.00;;;;;;5053619;28;20027;-78
2022/07/25 11:59:58;;;;;;;6.25;3.28;;;33.30;47.60;;;;;;5053296;28;20036;-77
2022/07/25 12:02:29;;;;;;;4.22;2.90;;;33.00;47.60;;;;;;5053430;28;20068;-78
2022/07/25 12:05:30;;;;;;;8.88;3.40;;;33.10;47.90;;;;;;5051399;28;20048;-72
2022/07/25 12:07:56;;;;;;;5.07;2.93;;;33.10;47.50;;;;;;5045084;28;20310;-71
2022/07/25 12:10:30;;;;;;;4.93;3.13;;;32.90;46.20;;;;;;5048378;28;20036;-75
2022/07/25 12:12:57;;;;;;;5.53;3.60;;;33.00;47.30;;;;;;5049503;28;20140;-75
2022/07/25 12:15:26;;;;;;;5.15;2.78;;;33.10;47.50;;;;;;5053134;28;20135;-77
2022/07/25 12:17:53;;;;;;;6.25;2.90;;;32.90;45.20;;;;;;5053016;28;20047;-74
2022/07/25 12:20:22;;;;;;;4.90;2.70;;;33.20;46.70;;;;;;5052864;28;20529;-78
2022/07/25 12:22:51;;;;;;;6.07;3.10;;;33.50;46.90;;;;;;5053456;28;20041;-78
2022/07/25 12:25:16;;;;;;;4.60;2.90;;;33.80;46.60;;;;;;5053115;28;20035;-77
2022/07/25 12:27:43;;;;;;;5.10;3.33;;;33.90;46.20;;;;;;5053293;28;20021;-78
2022/07/25 12:30:09;;;;;;;8.90;3.60;;;33.90;44.90;;;;;;5052956;28;20045;-74
2022/07/25 12:32:36;;;;;;;5.45;3.13;;;33.70;45.60;;;;;;5052903;28;20079;-78
2022/07/25 12:35:05;;;;;;;11.25;3.35;;;33.50;46.00;;;;;;5052547;28;20115;-78
2022/07/25 12:37:31;;;;;;;5.35;3.45;;;33.20;46.30;;;;;;5052829;28;20458;-78
2022/07/25 12:39:57;;;;;;;5.43;3.58;;;33.20;46.50;;;;;;5052639;28;20028;-75
2022/07/25 12:42:24;;;;;;;5.68;3.03;;;33.40;47.80;;;;;;5051797;28;20463;-72
2022/07/25 12:44:50;;;;;;;4.80;3.65;;;33.50;48.30;;;;;;5052817;28;20020;-78
2022/07/25 12:47:16;;;;;;;5.30;3.42;;;33.50;45.90;;;;;;5052822;28;20025;-78
2022/07/25 12:49:42;;;;;;;5.43;3.15;;;33.60;46.40;;;;;;5052835;28;20036;-78
2022/07/25 12:52:08;;;;;;;5.97;2.90;;;33.60;46.60;;;;;;5052866;28;20376;-79
2022/07/25 12:54:34;;;;;;;4.68;3.17;;;33.20;46.10;;;;;;5052759;28;20098;-78